To NAV CANADA Home Page Login to a new session Search on AWWS site Feedback and Comments Disclaimer Vers la page française équivalente Tips FAQ What's new on the site To the Forecasts and Observations / NOTAM section To "File a Flight Plan" website Publications and other links Update of the User's profile FIC Telephone Numbers My Weather Data Folder Route Weather Data Regional Weather Data Local Weather Data To the Forecasts and Observations / NOTAM section
Request Generated 10/01/2016 at 04:52:49 UTC . Weather information available at that time is displayed.

METAR/TAF

MONT-JOLI/QC    

METAR CYYY 010400Z 19006KT 15SM FEW240 09/06 A3042 RMK CI2 SLP304=
METAR CYYY 010300Z 18005KT 15SM FEW240 10/06 A3042 RMK CI2 SLP305=
METAR CYYY 010200Z 18006KT 15SM FEW240 10/06 A3043 RMK CI2 SLP307=

TAF CYYY 010138Z 0102/0114 20005KT P6SM FEW240
RMK NXT FCST BY 010800Z=
Your time UTC time
Weather data provided by Environment Canada and NAV CANADA